createdAt,value
2023-12-16T00:00:34.742Z,1.77
2023-12-16T00:03:25.672Z,1.77
2023-12-16T00:05:54.281Z,1.78
2023-12-16T00:08:23.138Z,1.79
2023-12-16T00:10:59.975Z,1.78
2023-12-16T00:18:00.851Z,1.78
2023-12-16T00:20:28.262Z,1.79
2023-12-16T00:22:55.840Z,1.77
2023-12-16T00:25:24.070Z,1.77
2023-12-16T00:30:33.633Z,1.73
2023-12-16T00:33:03.518Z,1.72
2023-12-16T00:35:56.669Z,1.72
2023-12-16T00:38:49.271Z,1.71
2023-12-16T00:41:43.921Z,1.71
2023-12-16T00:46:58.006Z,1.74
2023-12-16T00:49:25.556Z,1.74
2023-12-16T00:51:52.843Z,1.76
2023-12-16T00:54:44.711Z,1.78
2023-12-16T00:57:12.261Z,1.78
2023-12-16T00:59:39.498Z,1.82
2023-12-16T01:02:09.282Z,1.83
2023-12-16T01:04:43.521Z,1.85
2023-12-16T01:07:12.134Z,1.84
2023-12-16T01:10:11.605Z,1.85
2023-12-16T01:12:48.822Z,1.85
2023-12-16T01:15:36.876Z,1.86
2023-12-16T01:18:05.223Z,1.87
2023-12-16T01:20:32.853Z,1.89
2023-12-16T01:23:00.911Z,1.89
2023-12-16T01:25:28.154Z,1.90
2023-12-16T01:28:05.466Z,1.91
2023-12-16T01:34:09.812Z,1.91
2023-12-16T01:40:08.365Z,1.87
2023-12-16T01:42:35.920Z,1.86
2023-12-16T01:45:05.073Z,1.85
2023-12-16T01:47:33.139Z,1.85
2023-12-16T01:50:48.193Z,1.89
2023-12-16T01:53:15.703Z,1.89
2023-12-16T01:56:11.685Z,1.88
2023-12-16T01:59:05.827Z,1.88
2023-12-16T02:01:33.800Z,1.91
2023-12-16T02:04:27.257Z,1.91
2023-12-16T02:06:54.660Z,1.91
2023-12-16T02:09:22.879Z,1.94
2023-12-16T02:11:50.271Z,1.95
2023-12-16T02:14:19.577Z,1.94
2023-12-16T02:16:50.007Z,1.94
2023-12-16T02:19:32.984Z,1.94
2023-12-16T02:22:00.943Z,1.94
2023-12-16T02:24:30.274Z,1.93
2023-12-16T02:26:57.800Z,1.95
2023-12-16T02:29:25.328Z,1.93
2023-12-16T02:31:52.845Z,1.96
2023-12-16T02:34:20.786Z,1.95
2023-12-16T02:36:48.105Z,1.94
2023-12-16T02:39:15.757Z,1.95
2023-12-16T02:41:43.702Z,1.95
2023-12-16T02:44:15.193Z,1.92
2023-12-16T02:46:49.319Z,1.91
2023-12-16T02:49:17.055Z,1.94
2023-12-16T02:51:44.309Z,1.93
2023-12-16T02:54:13.304Z,1.94
2023-12-16T02:56:40.499Z,1.97
2023-12-16T02:59:09.788Z,1.97
2023-12-16T03:01:45.152Z,1.96
2023-12-16T03:04:12.859Z,1.96
2023-12-16T03:06:47.196Z,1.96
2023-12-16T03:09:16.248Z,1.96
2023-12-16T03:12:08.673Z,1.94
2023-12-16T03:14:38.931Z,1.95
2023-12-16T03:17:06.206Z,1.95
2023-12-16T03:19:58.952Z,1.93
2023-12-16T03:23:17.686Z,1.91
2023-12-16T03:25:45.699Z,1.90
2023-12-16T03:28:16.931Z,1.90
2023-12-16T03:30:44.981Z,1.88
2023-12-16T03:33:30.825Z,1.84
2023-12-16T03:35:59.086Z,1.80
2023-12-16T03:38:26.284Z,1.80
2023-12-16T03:40:53.929Z,1.78
2023-12-16T03:43:21.465Z,1.72
2023-12-16T03:46:14.917Z,1.72
2023-12-16T03:51:50.384Z,1.77
2023-12-16T03:54:17.554Z,1.78
2023-12-16T03:56:45.711Z,1.76
2023-12-16T03:59:36.139Z,1.79
2023-12-16T04:02:05.413Z,1.78
2023-12-16T04:04:34.129Z,1.79
2023-12-16T04:07:51.500Z,1.80
2023-12-16T04:13:28.308Z,1.80
2023-12-16T04:16:04.139Z,1.81
2023-12-16T04:18:33.504Z,1.80
2023-12-16T04:21:02.680Z,1.82
2023-12-16T04:23:34.002Z,1.84
2023-12-16T04:26:33.210Z,1.85
2023-12-16T04:29:03.781Z,1.86
2023-12-16T04:31:34.959Z,1.89
2023-12-16T04:34:02.880Z,1.90
2023-12-16T04:36:31.209Z,1.89
2023-12-16T04:39:14.045Z,1.91
2023-12-16T04:45:14.716Z,1.94
2023-12-16T04:47:49.441Z,1.94
2023-12-16T04:50:43.517Z,1.95
2023-12-16T04:53:11.100Z,1.94
2023-12-16T04:56:29.434Z,1.93
2023-12-16T04:59:50.669Z,1.94
2023-12-16T05:02:17.903Z,1.96
2023-12-16T05:05:10.952Z,1.98
2023-12-16T05:07:40.619Z,1.98
2023-12-16T05:10:20.870Z,2.00
2023-12-16T05:13:38.378Z,2.01
2023-12-16T05:16:08.961Z,2.01
2023-12-16T05:18:37.536Z,1.98
2023-12-16T05:21:06.230Z,1.99
2023-12-16T05:23:42.768Z,1.99
2023-12-16T05:26:35.615Z,1.98
2023-12-16T05:29:52.541Z,2.01
2023-12-16T05:32:29.174Z,1.99
2023-12-16T05:34:58.083Z,2.00
2023-12-16T05:37:25.669Z,2.01
2023-12-16T05:40:19.870Z,2.03
2023-12-16T05:42:47.515Z,2.03
2023-12-16T05:45:15.410Z,2.03
2023-12-16T05:47:43.364Z,2.03
2023-12-16T05:50:20.878Z,2.03
2023-12-16T05:52:48.466Z,2.04
2023-12-16T05:55:40.828Z,2.03
2023-12-16T05:58:08.437Z,2.04
2023-12-16T06:04:34.495Z,2.07
2023-12-16T06:07:01.827Z,2.08
2023-12-16T06:09:29.372Z,2.08
2023-12-16T06:12:21.714Z,2.04
2023-12-16T06:14:49.344Z,2.01
2023-12-16T06:17:16.741Z,1.99
2023-12-16T06:19:44.553Z,2.00
2023-12-16T06:22:11.844Z,2.02
2023-12-16T06:24:43.636Z,2.02
2023-12-16T06:27:10.959Z,2.03
2023-12-16T06:29:40.905Z,2.04
2023-12-16T06:32:28.759Z,2.06
2023-12-16T06:35:03.417Z,2.10
2023-12-16T06:37:31.447Z,2.11
2023-12-16T06:40:01.777Z,2.11
2023-12-16T06:42:42.896Z,2.11
2023-12-16T06:45:10.970Z,2.13
2023-12-16T06:47:43.518Z,2.14
2023-12-16T06:50:43.913Z,2.15
2023-12-16T06:53:18.245Z,2.14
2023-12-16T06:55:46.721Z,2.16
2023-12-16T06:58:13.995Z,2.18
2023-12-16T07:00:54.119Z,2.17
2023-12-16T07:03:29.741Z,2.19
2023-12-16T07:06:21.520Z,2.23
2023-12-16T07:11:57.611Z,2.27
2023-12-16T07:14:29.264Z,2.29
2023-12-16T07:17:00.990Z,2.31
2023-12-16T07:19:28.710Z,2.33
2023-12-16T07:21:56.910Z,2.35
2023-12-16T07:24:24.229Z,2.37
2023-12-16T07:26:51.778Z,2.36
2023-12-16T07:29:21.872Z,2.40
2023-12-16T07:31:50.127Z,2.43
2023-12-16T07:34:18.188Z,2.47
2023-12-16T07:36:47.201Z,2.47
2023-12-16T07:39:25.317Z,2.48
2023-12-16T07:42:44.460Z,2.50
2023-12-16T07:45:12.288Z,2.53
2023-12-16T07:47:40.531Z,2.53
2023-12-16T07:52:54.851Z,2.57
2023-12-16T07:55:28.609Z,2.59
2023-12-16T07:58:21.746Z,2.59
2023-12-16T08:00:49.456Z,2.63
2023-12-16T08:03:17.106Z,2.64
2023-12-16T08:05:44.683Z,2.65
2023-12-16T08:08:12.269Z,2.70
2023-12-16T08:10:42.976Z,2.70
2023-12-16T08:13:11.921Z,2.73
2023-12-16T08:15:39.312Z,2.77
2023-12-16T08:18:08.804Z,2.77
2023-12-16T08:20:36.042Z,2.80
2023-12-16T08:23:29.749Z,2.81
2023-12-16T08:25:57.218Z,2.84
2023-12-16T08:29:00.556Z,2.87
2023-12-16T08:31:52.753Z,2.90
2023-12-16T08:34:21.309Z,2.94
2023-12-16T08:40:29.261Z,3.01
2023-12-16T08:46:31.251Z,3.06
2023-12-16T08:48:59.373Z,3.10
2023-12-16T08:51:53.346Z,3.13
2023-12-16T08:54:47.068Z,3.15
2023-12-16T08:57:33.341Z,3.18
2023-12-16T09:00:01.027Z,3.20
2023-12-16T09:02:28.581Z,3.24
2023-12-16T09:05:52.442Z,3.28
2023-12-16T09:08:20.102Z,3.33
2023-12-16T09:10:54.033Z,3.35
2023-12-16T09:13:28.030Z,3.35
2023-12-16T09:15:56.233Z,3.40
2023-12-16T09:18:38.588Z,3.43
2023-12-16T09:21:06.843Z,3.46
2023-12-16T09:23:59.654Z,3.49
2023-12-16T09:26:27.688Z,3.51
2023-12-16T09:28:56.200Z,3.55
2023-12-16T09:31:31.555Z,3.59
2023-12-16T09:33:59.821Z,3.62
2023-12-16T09:37:11.056Z,3.67
2023-12-16T09:39:40.522Z,3.71
2023-12-16T09:42:08.156Z,3.74
2023-12-16T09:44:41.273Z,3.78
2023-12-16T09:47:12.554Z,3.83
2023-12-16T09:49:44.394Z,3.86
2023-12-16T09:52:12.184Z,3.93
2023-12-16T09:54:40.903Z,3.95
2023-12-16T09:57:13.638Z,3.96
2023-12-16T09:59:48.401Z,4.00
2023-12-16T10:02:30.239Z,4.02
2023-12-16T10:04:59.878Z,4.03
2023-12-16T10:07:49.201Z,4.05
2023-12-16T10:10:18.048Z,4.07
2023-12-16T10:12:47.305Z,4.10
2023-12-16T10:15:33.593Z,4.14
2023-12-16T10:18:03.695Z,4.12
2023-12-16T10:20:40.121Z,4.18
2023-12-16T10:23:09.334Z,4.18
2023-12-16T10:25:56.857Z,4.23
2023-12-16T10:28:28.180Z,4.26
2023-12-16T10:31:02.438Z,4.31
2023-12-16T10:33:52.099Z,4.37
2023-12-16T10:36:38.771Z,4.42
2023-12-16T10:39:33.364Z,4.46
2023-12-16T10:42:03.968Z,4.46
2023-12-16T10:44:32.272Z,4.48
2023-12-16T10:47:00.089Z,4.50
2023-12-16T10:49:33.329Z,4.56
2023-12-16T10:52:42.930Z,4.58
2023-12-16T10:55:23.675Z,4.59
2023-12-16T10:58:20.576Z,4.66
2023-12-16T11:00:53.496Z,4.69
2023-12-16T11:03:54.087Z,4.73
2023-12-16T11:06:42.309Z,4.80
2023-12-16T11:09:19.044Z,4.80
2023-12-16T11:14:56.151Z,4.90
2023-12-16T11:17:48.808Z,4.90
2023-12-16T11:23:49.429Z,4.96
2023-12-16T11:26:18.061Z,5.00
2023-12-16T11:30:05.387Z,5.02
2023-12-16T11:32:35.313Z,5.05
2023-12-16T11:35:10.842Z,5.03
2023-12-16T11:37:38.912Z,5.06
2023-12-16T11:40:47.571Z,5.11
2023-12-16T11:43:15.294Z,5.15
2023-12-16T11:48:35.632Z,5.17
2023-12-16T11:51:55.751Z,5.17
2023-12-16T11:54:26.731Z,5.21
2023-12-16T11:57:53.936Z,5.25
2023-12-16T12:00:23.083Z,5.27
2023-12-16T12:02:54.841Z,5.32
2023-12-16T12:05:23.669Z,5.35
2023-12-16T12:07:51.445Z,5.38
2023-12-16T12:10:25.899Z,5.44
2023-12-16T12:12:53.780Z,5.43
2023-12-16T12:15:21.524Z,5.46
2023-12-16T12:18:29.165Z,5.51
2023-12-16T12:20:57.046Z,5.53
2023-12-16T12:23:25.119Z,5.55
2023-12-16T12:25:57.090Z,5.56
2023-12-16T12:28:24.460Z,5.57
2023-12-16T12:31:01.745Z,5.61
2023-12-16T12:33:30.291Z,5.61
2023-12-16T12:35:58.285Z,5.61
2023-12-16T12:38:26.758Z,5.63
2023-12-16T12:41:05.524Z,5.64
2023-12-16T12:43:36.593Z,5.66
2023-12-16T12:46:13.517Z,5.70
2023-12-16T12:48:56.392Z,5.65
2023-12-16T12:51:26.993Z,5.64
2023-12-16T12:54:02.829Z,5.62
2023-12-16T12:56:30.897Z,5.56
2023-12-16T12:58:59.661Z,5.53
2023-12-16T13:01:27.671Z,5.52
2023-12-16T13:03:55.404Z,5.50
2023-12-16T13:06:27.144Z,5.49
2023-12-16T13:08:57.756Z,5.50
2023-12-16T13:11:29.683Z,5.50
2023-12-16T13:13:57.162Z,5.49
2023-12-16T13:16:24.763Z,5.48
2023-12-16T13:18:53.965Z,5.47
2023-12-16T13:21:23.380Z,5.47
2023-12-16T13:23:51.274Z,5.44
2023-12-16T13:26:19.564Z,5.44
2023-12-16T13:28:47.014Z,5.44
2023-12-16T13:31:14.622Z,5.48
2023-12-16T13:33:43.287Z,5.45
2023-12-16T13:36:32.987Z,5.44
2023-12-16T13:38:58.966Z,5.42
2023-12-16T13:41:26.557Z,5.42
2023-12-16T13:44:01.812Z,5.39
2023-12-16T13:46:33.811Z,5.37
2023-12-16T13:49:07.118Z,5.35
2023-12-16T13:51:35.044Z,5.34
2023-12-16T13:54:04.207Z,5.32
2023-12-16T13:56:31.971Z,5.31
2023-12-16T13:59:14.554Z,5.29
2023-12-16T14:01:52.496Z,5.29
2023-12-16T14:04:51.776Z,5.29
2023-12-16T14:07:44.185Z,5.27
2023-12-16T14:10:17.880Z,5.28
2023-12-16T14:12:54.782Z,5.28
2023-12-16T14:15:28.479Z,5.27
2023-12-16T14:17:56.785Z,5.27
2023-12-16T14:23:59.962Z,5.24
2023-12-16T14:26:27.359Z,5.23
2023-12-16T14:28:54.997Z,5.24
2023-12-16T14:31:24.421Z,5.23
2023-12-16T14:34:00.697Z,5.20
2023-12-16T14:36:39.345Z,5.20
2023-12-16T14:39:35.781Z,5.21
2023-12-16T14:42:04.145Z,5.18
2023-12-16T14:44:43.509Z,5.18
2023-12-16T14:47:22.416Z,5.15
2023-12-16T14:49:50.068Z,5.14
2023-12-16T14:52:17.367Z,5.15
2023-12-16T14:54:44.916Z,5.14
2023-12-16T14:57:27.468Z,5.14
2023-12-16T14:59:57.484Z,5.14
2023-12-16T15:02:25.374Z,5.13
2023-12-16T15:04:52.935Z,5.16
2023-12-16T15:07:29.930Z,5.16
2023-12-16T15:09:58.737Z,5.13
2023-12-16T15:15:14.109Z,5.14
2023-12-16T15:18:07.051Z,5.16
2023-12-16T15:23:16.347Z,5.17
2023-12-16T15:25:43.872Z,5.16
2023-12-16T15:28:11.901Z,5.18
2023-12-16T15:30:42.156Z,5.16
2023-12-16T15:36:43.591Z,5.17
2023-12-16T15:39:31.209Z,5.14
2023-12-16T15:42:20.463Z,5.14
2023-12-16T15:45:14.322Z,5.11
2023-12-16T15:47:54.474Z,5.11
2023-12-16T15:50:25.443Z,5.11
2023-12-16T15:52:53.007Z,5.12
2023-12-16T15:55:45.702Z,5.10
2023-12-16T15:58:13.410Z,5.11
2023-12-16T16:00:50.583Z,5.10
2023-12-16T16:03:19.459Z,5.10
2023-12-16T16:05:47.137Z,5.11
2023-12-16T16:08:18.354Z,5.09
2023-12-16T16:10:46.798Z,5.09
2023-12-16T16:13:14.495Z,5.08
2023-12-16T16:19:10.418Z,5.07
2023-12-16T16:21:37.712Z,5.06
2023-12-16T16:24:05.599Z,5.06
2023-12-16T16:26:34.296Z,5.07
2023-12-16T16:29:04.045Z,5.07
2023-12-16T16:31:36.007Z,5.08
2023-12-16T16:34:06.684Z,5.07
2023-12-16T16:36:34.954Z,5.07
2023-12-16T16:39:02.562Z,5.05
2023-12-16T16:41:31.194Z,5.03
2023-12-16T16:43:59.202Z,5.04
2023-12-16T16:46:27.023Z,5.00
2023-12-16T16:48:54.747Z,4.98
2023-12-16T16:51:45.749Z,4.98
2023-12-16T16:54:33.606Z,4.97
2023-12-16T16:57:01.107Z,4.95
2023-12-16T16:59:28.752Z,4.94
2023-12-16T17:01:56.147Z,4.93
2023-12-16T17:04:50.493Z,4.90
2023-12-16T17:07:17.940Z,4.89
2023-12-16T17:10:11.439Z,4.88
2023-12-16T17:12:39.392Z,4.86
2023-12-16T17:15:09.671Z,4.84
2023-12-16T17:17:37.622Z,4.84
2023-12-16T17:20:06.592Z,4.85
2023-12-16T17:22:58.567Z,4.88
2023-12-16T17:26:03.503Z,4.88
2023-12-16T17:28:41.512Z,4.89
2023-12-16T17:31:10.009Z,4.89
2023-12-16T17:33:38.311Z,4.88
2023-12-16T17:36:06.625Z,4.90
2023-12-16T17:38:34.042Z,4.90
2023-12-16T17:41:18.682Z,4.91
2023-12-16T17:43:46.149Z,4.90
2023-12-16T17:46:15.377Z,4.91
2023-12-16T17:51:35.816Z,4.93
2023-12-16T17:54:03.542Z,4.94
2023-12-16T17:57:48.530Z,4.95
2023-12-16T18:00:18.212Z,4.94
2023-12-16T18:03:06.213Z,4.96
2023-12-16T18:05:39.941Z,4.95
2023-12-16T18:08:09.174Z,4.95
2023-12-16T18:10:52.991Z,4.95
2023-12-16T18:13:20.685Z,4.94
2023-12-16T18:16:00.139Z,4.96
2023-12-16T18:18:27.721Z,4.94
2023-12-16T18:21:21.923Z,4.95
2023-12-16T18:24:03.360Z,4.98
2023-12-16T18:26:31.100Z,4.98
2023-12-16T18:28:59.546Z,4.97
2023-12-16T18:31:43.920Z,4.97
2023-12-16T18:34:13.545Z,4.93
2023-12-16T18:37:03.003Z,4.93
2023-12-16T18:39:31.707Z,4.92
2023-12-16T18:41:59.895Z,4.94
2023-12-16T18:44:53.398Z,4.93
2023-12-16T18:50:37.942Z,4.93
2023-12-16T18:53:21.435Z,4.94
2023-12-16T18:56:46.473Z,4.94
2023-12-16T18:59:16.116Z,4.95
2023-12-16T19:01:43.416Z,4.95
2023-12-16T19:04:11.720Z,4.96
2023-12-16T19:06:45.815Z,4.96
2023-12-16T19:10:09.431Z,4.94
2023-12-16T19:12:37.048Z,4.96
2023-12-16T19:15:12.149Z,4.96
2023-12-16T19:17:40.103Z,4.95
2023-12-16T19:21:16.562Z,4.96
2023-12-16T19:23:43.975Z,4.96
2023-12-16T19:26:36.383Z,4.97
2023-12-16T19:29:03.806Z,4.96
2023-12-16T19:31:31.331Z,4.96
2023-12-16T19:33:58.882Z,4.96
2023-12-16T19:36:26.814Z,4.95
2023-12-16T19:38:54.966Z,4.97
2023-12-16T19:41:23.002Z,4.98
2023-12-16T19:44:16.826Z,4.98
2023-12-16T19:46:45.052Z,4.98
2023-12-16T19:49:13.858Z,4.98
2023-12-16T19:51:48.321Z,4.98
2023-12-16T19:54:43.570Z,4.98
2023-12-16T19:57:12.644Z,4.98
2023-12-16T19:59:49.159Z,4.98
2023-12-16T20:02:21.512Z,4.99
2023-12-16T20:12:51.207Z,4.97
2023-12-16T20:15:18.874Z,4.98
2023-12-16T20:17:54.657Z,4.99
2023-12-16T20:20:31.248Z,4.98
2023-12-16T20:23:29.851Z,4.99
2023-12-16T20:25:57.461Z,4.99
2023-12-16T20:28:51.400Z,4.99
2023-12-16T20:31:49.070Z,5.00
2023-12-16T20:34:24.507Z,5.00
2023-12-16T20:37:40.370Z,4.98
2023-12-16T20:40:27.841Z,5.01
2023-12-16T20:43:20.719Z,4.97
2023-12-16T20:46:13.640Z,4.97
2023-12-16T20:48:43.244Z,4.93
2023-12-16T20:51:12.822Z,4.91
2023-12-16T20:53:43.124Z,4.91
2023-12-16T20:56:14.025Z,4.85
2023-12-16T20:58:45.056Z,4.86
2023-12-16T21:01:12.692Z,4.83
2023-12-16T21:03:40.320Z,4.79
2023-12-16T21:06:08.944Z,4.78
2023-12-16T21:08:40.131Z,4.74
2023-12-16T21:11:09.416Z,4.71
2023-12-16T21:16:18.444Z,4.67
2023-12-16T21:21:57.131Z,4.62
2023-12-16T21:24:25.569Z,4.60
2023-12-16T21:26:53.155Z,4.62
2023-12-16T21:29:20.629Z,4.60
2023-12-16T21:31:49.770Z,4.62
2023-12-16T21:34:17.377Z,4.60
2023-12-16T21:36:44.965Z,4.64
2023-12-16T21:39:12.220Z,4.64
2023-12-16T21:41:40.074Z,4.61
2023-12-16T21:44:14.176Z,4.60
2023-12-16T21:50:07.956Z,4.56
2023-12-16T21:53:31.149Z,4.56
2023-12-16T21:56:05.578Z,4.58
2023-12-16T21:59:29.096Z,4.58
2023-12-16T22:01:58.034Z,4.54
2023-12-16T22:04:33.485Z,4.53
2023-12-16T22:07:05.547Z,4.55
2023-12-16T22:10:03.132Z,4.57
2023-12-16T22:16:32.301Z,4.52
2023-12-16T22:19:34.116Z,4.51
2023-12-16T22:22:08.902Z,4.49
2023-12-16T22:24:37.436Z,4.48
2023-12-16T22:27:57.765Z,4.46
2023-12-16T22:30:25.364Z,4.48
2023-12-16T22:32:53.580Z,4.47
2023-12-16T22:35:24.827Z,4.46
2023-12-16T22:37:52.768Z,4.47
2023-12-16T22:40:50.564Z,4.46
2023-12-16T22:43:34.358Z,4.47
2023-12-16T22:47:01.666Z,4.47
2023-12-16T22:49:31.153Z,4.44
2023-12-16T22:51:59.107Z,4.44
2023-12-16T22:54:26.777Z,4.45
2023-12-16T22:57:01.838Z,4.47
2023-12-16T22:59:29.767Z,4.44
2023-12-16T23:01:57.492Z,4.42
2023-12-16T23:04:24.842Z,4.42
2023-12-16T23:06:52.315Z,4.44
2023-12-16T23:09:19.802Z,4.43
2023-12-16T23:12:16.340Z,4.45
2023-12-16T23:14:43.652Z,4.46
2023-12-16T23:17:37.709Z,4.45
2023-12-16T23:20:07.071Z,4.45
2023-12-16T23:22:41.943Z,4.45
2023-12-16T23:25:10.623Z,4.43
2023-12-16T23:27:40.564Z,4.42
2023-12-16T23:33:17.061Z,4.36
2023-12-16T23:36:10.422Z,4.33
2023-12-16T23:39:20.080Z,4.32
2023-12-16T23:41:50.397Z,4.33
2023-12-16T23:45:01.697Z,4.32
2023-12-16T23:47:29.456Z,4.33
2023-12-16T23:49:56.792Z,4.32
2023-12-16T23:52:50.745Z,4.28
2023-12-16T23:55:43.017Z,4.27
2023-12-16T23:58:45.094Z,4.26
